createdAt,value
2022-09-23T00:01:13.596Z,5.70
2022-09-23T00:03:42.499Z,5.60
2022-09-23T00:06:12.343Z,3.80
2022-09-23T00:08:40.608Z,3.90
2022-09-23T00:11:12.647Z,3.00
2022-09-23T00:13:41.366Z,5.30
2022-09-23T00:16:11.938Z,5.50
2022-09-23T00:18:38.824Z,5.30
2022-09-23T00:21:09.860Z,4.80
2022-09-23T00:23:38.046Z,4.70
2022-09-23T00:26:07.045Z,4.20
2022-09-23T00:28:34.498Z,5.20
2022-09-23T00:31:03.202Z,4.80
2022-09-23T00:33:30.032Z,5.50
2022-09-23T00:36:01.433Z,4.80
2022-09-23T00:38:29.120Z,3.50
2022-09-23T00:40:55.905Z,3.30
2022-09-23T00:43:44.258Z,5.00
2022-09-23T00:46:19.871Z,4.40
2022-09-23T00:48:50.292Z,4.60
2022-09-23T00:51:22.624Z,4.40
2022-09-23T00:53:50.954Z,4.70
2022-09-23T00:56:19.924Z,4.90
2022-09-23T00:58:48.977Z,4.60
2022-09-23T01:01:15.627Z,5.10
2022-09-23T01:03:44.555Z,5.40
2022-09-23T01:06:12.450Z,4.10
2022-09-23T01:08:41.987Z,4.50
2022-09-23T01:11:18.262Z,4.40
2022-09-23T01:14:22.333Z,4.60
2022-09-23T01:16:57.762Z,4.20
2022-09-23T01:19:36.450Z,4.40
2022-09-23T01:22:06.093Z,4.10
2022-09-23T01:24:54.516Z,4.30
2022-09-23T01:27:30.458Z,4.50
2022-09-23T01:30:31.299Z,3.20
2022-09-23T01:33:12.649Z,3.00
2022-09-23T01:35:49.870Z,4.30
2022-09-23T01:38:28.515Z,4.00
2022-09-23T01:41:09.406Z,4.80
2022-09-23T01:43:49.262Z,5.20
2022-09-23T01:46:37.924Z,4.50
2022-09-23T01:49:17.803Z,4.60
2022-09-23T01:52:06.369Z,4.60
2022-09-23T01:54:49.855Z,3.30
2022-09-23T01:57:28.905Z,3.90
2022-09-23T02:00:00.778Z,4.50
2022-09-23T02:02:49.197Z,4.60
2022-09-23T02:05:32.375Z,4.80
2022-09-23T02:08:04.472Z,4.90
2022-09-23T02:10:44.141Z,4.10
2022-09-23T02:13:29.509Z,3.00
2022-09-23T02:16:01.598Z,3.80
2022-09-23T02:18:33.638Z,3.40
2022-09-23T02:21:06.241Z,3.20
2022-09-23T02:26:26.264Z,3.60
2022-09-23T02:29:04.580Z,3.90
2022-09-23T02:31:46.051Z,2.50
2022-09-23T02:34:44.916Z,3.70
2022-09-23T02:37:21.388Z,3.40
2022-09-23T02:40:05.680Z,3.60
2022-09-23T02:43:00.274Z,2.70
2022-09-23T02:45:27.078Z,3.10
2022-09-23T02:48:03.631Z,4.00
2022-09-23T02:50:32.464Z,4.40
2022-09-23T02:53:00.531Z,3.30
2022-09-23T02:55:32.393Z,4.10
2022-09-23T02:58:01.234Z,3.40
2022-09-23T03:01:07.519Z,4.10
2022-09-23T03:03:40.536Z,4.00
2022-09-23T03:06:31.911Z,2.80
2022-09-23T03:09:08.447Z,2.80
2022-09-23T03:11:38.611Z,3.80
2022-09-23T03:14:21.471Z,2.90
2022-09-23T03:17:19.759Z,3.70
2022-09-23T03:20:02.737Z,4.10
2022-09-23T03:25:12.979Z,3.90
2022-09-23T03:27:41.803Z,4.40
2022-09-23T03:30:10.294Z,4.30
2022-09-23T03:32:38.839Z,4.00
2022-09-23T03:35:06.011Z,4.00
2022-09-23T03:37:46.891Z,3.00
2022-09-23T03:40:20.064Z,3.00
2022-09-23T03:42:49.547Z,4.80
2022-09-23T03:45:23.207Z,4.60
2022-09-23T03:47:49.751Z,3.80
2022-09-23T03:50:16.711Z,5.40
2022-09-23T03:52:43.808Z,6.60
2022-09-23T03:55:10.832Z,5.80
2022-09-23T03:57:37.599Z,4.70
2022-09-23T04:00:06.244Z,4.70
2022-09-23T04:02:38.772Z,3.00
2022-09-23T04:05:06.659Z,3.80
2022-09-23T04:07:33.815Z,4.50
2022-09-23T04:10:00.440Z,4.60
2022-09-23T04:12:27.299Z,3.80
2022-09-23T04:14:54.028Z,2.80
2022-09-23T04:17:20.570Z,4.60
2022-09-23T04:19:47.188Z,4.60
2022-09-23T04:22:13.804Z,5.30
2022-09-23T04:24:40.688Z,4.20
2022-09-23T04:27:07.266Z,4.10
2022-09-23T04:29:36.394Z,3.60
2022-09-23T04:32:05.656Z,4.00
2022-09-23T04:34:32.316Z,3.30
2022-09-23T04:36:59.015Z,3.40
2022-09-23T04:39:26.012Z,3.80
2022-09-23T04:41:52.642Z,3.20
2022-09-23T04:44:20.727Z,3.10
2022-09-23T04:46:48.780Z,4.50
2022-09-23T04:49:16.019Z,3.60
2022-09-23T04:51:43.077Z,4.70
2022-09-23T04:54:11.726Z,5.20
2022-09-23T04:56:39.103Z,5.50
2022-09-23T04:59:06.666Z,4.20
2022-09-23T05:01:35.707Z,5.70
2022-09-23T05:04:05.025Z,6.00
2022-09-23T05:06:35.536Z,5.70
2022-09-23T05:09:07.007Z,3.90
2022-09-23T05:11:34.274Z,5.60
2022-09-23T05:14:01.272Z,3.70
2022-09-23T05:16:28.931Z,4.70
2022-09-23T05:18:57.015Z,5.20
2022-09-23T05:21:26.412Z,4.90
2022-09-23T05:23:54.673Z,4.60
2022-09-23T05:26:23.621Z,4.00
2022-09-23T05:28:53.428Z,3.90
2022-09-23T05:31:22.685Z,5.10
2022-09-23T05:33:52.226Z,5.30
2022-09-23T05:36:20.751Z,3.90
2022-09-23T05:38:49.395Z,3.60
2022-09-23T05:41:17.351Z,5.40
2022-09-23T05:43:44.178Z,3.30
2022-09-23T05:46:22.810Z,3.80
2022-09-23T05:48:50.020Z,4.70
2022-09-23T05:51:19.551Z,5.30
2022-09-23T05:53:47.190Z,5.00
2022-09-23T05:56:16.428Z,3.50
2022-09-23T05:58:43.919Z,3.30
2022-09-23T06:01:24.257Z,4.90
2022-09-23T06:03:52.280Z,5.20
2022-09-23T06:06:25.462Z,3.90
2022-09-23T06:08:52.084Z,5.30
2022-09-23T06:11:20.894Z,3.40
2022-09-23T06:13:47.995Z,6.80
2022-09-23T06:16:15.793Z,5.50
2022-09-23T06:18:44.386Z,5.60
2022-09-23T06:21:18.303Z,5.70
2022-09-23T06:23:45.966Z,4.40
2022-09-23T06:26:14.974Z,5.80
2022-09-23T06:28:43.386Z,5.20
2022-09-23T06:31:14.957Z,5.50
2022-09-23T06:33:44.545Z,5.00
2022-09-23T06:36:15.046Z,4.70
2022-09-23T06:41:12.072Z,4.40
2022-09-23T06:43:38.892Z,4.30
2022-09-23T06:46:07.237Z,5.50
2022-09-23T06:48:35.148Z,4.80
2022-09-23T06:51:04.733Z,4.80
2022-09-23T06:53:31.768Z,3.70
2022-09-23T06:56:06.860Z,3.70
2022-09-23T06:58:39.824Z,5.70
2022-09-23T07:01:12.624Z,5.80
2022-09-23T07:03:39.250Z,4.20
2022-09-23T07:06:06.817Z,5.20
2022-09-23T07:08:35.049Z,4.50
2022-09-23T07:11:05.190Z,4.70
2022-09-23T07:13:33.062Z,5.20
2022-09-23T07:16:03.284Z,4.20
2022-09-23T07:18:37.177Z,4.90
2022-09-23T07:21:14.491Z,2.90
2022-09-23T07:23:46.173Z,4.10
2022-09-23T07:26:14.524Z,3.90
2022-09-23T07:28:41.403Z,3.40
2022-09-23T07:31:11.662Z,5.10
2022-09-23T07:33:43.528Z,4.80
2022-09-23T07:36:17.039Z,3.40
2022-09-23T07:38:45.706Z,3.50
2022-09-23T07:41:18.633Z,2.90
2022-09-23T07:43:48.785Z,2.50
2022-09-23T07:46:17.563Z,2.60
2022-09-23T07:48:45.568Z,4.60
2022-09-23T07:51:18.177Z,3.10
2022-09-23T07:56:16.844Z,3.80
2022-09-23T07:58:43.829Z,2.70
2022-09-23T08:01:13.196Z,3.80
2022-09-23T08:03:49.721Z,2.60
2022-09-23T08:06:17.323Z,2.30
2022-09-23T08:08:44.745Z,2.30
2022-09-23T08:11:13.717Z,2.00
2022-09-23T08:13:41.272Z,2.30
2022-09-23T08:16:10.025Z,1.90
2022-09-23T08:18:37.690Z,2.00
2022-09-23T08:21:04.895Z,1.90
2022-09-23T08:23:33.591Z,2.30
2022-09-23T08:26:03.868Z,1.80
2022-09-23T08:28:33.282Z,3.00
2022-09-23T08:31:00.235Z,3.00
2022-09-23T08:33:27.371Z,2.40
2022-09-23T08:36:01.845Z,2.30
2022-09-23T08:38:29.648Z,1.90
2022-09-23T08:41:27.420Z,1.70
2022-09-23T08:44:19.865Z,2.00
2022-09-23T08:46:52.483Z,2.20
2022-09-23T08:49:29.818Z,2.30
2022-09-23T08:52:02.467Z,1.90
2022-09-23T08:54:31.111Z,2.30
2022-09-23T08:57:02.245Z,2.80
2022-09-23T08:59:42.561Z,1.60
2022-09-23T09:02:20.031Z,2.40
2022-09-23T09:04:58.544Z,3.00
2022-09-23T09:07:38.033Z,2.20
2022-09-23T09:10:24.492Z,2.50
2022-09-23T09:13:06.937Z,1.90
2022-09-23T09:16:15.546Z,1.90
2022-09-23T09:18:54.508Z,1.90
2022-09-23T09:21:38.085Z,2.70
2022-09-23T09:24:18.552Z,2.80
2022-09-23T09:26:45.602Z,1.60
2022-09-23T09:29:35.092Z,2.20
2022-09-23T09:32:23.827Z,2.10
2022-09-23T09:35:00.297Z,2.00
2022-09-23T09:39:35.353Z,1.50
2022-09-23T09:42:07.969Z,1.80
2022-09-23T09:44:48.504Z,2.00
2022-09-23T09:47:42.745Z,2.40
2022-09-23T09:50:28.171Z,2.20
2022-09-23T09:53:38.509Z,3.10
2022-09-23T09:56:13.593Z,2.10
2022-09-23T09:58:52.304Z,1.90
2022-09-23T10:01:31.401Z,1.70
2022-09-23T10:04:08.145Z,2.10
2022-09-23T10:07:05.552Z,1.80
2022-09-23T10:09:38.675Z,1.80
2022-09-23T10:14:57.501Z,1.80
2022-09-23T10:17:36.630Z,2.00
2022-09-23T10:20:16.543Z,2.20
2022-09-23T10:22:50.456Z,2.00
2022-09-23T10:25:28.403Z,2.00
2022-09-23T10:27:57.520Z,2.40
2022-09-23T10:30:28.301Z,2.30
2022-09-23T10:33:03.952Z,2.20
2022-09-23T10:35:34.079Z,2.00
2022-09-23T10:38:02.795Z,2.50
2022-09-23T10:40:57.327Z,2.60
2022-09-23T10:44:02.081Z,3.50
2022-09-23T10:46:39.323Z,2.50
2022-09-23T10:49:30.756Z,2.10
2022-09-23T10:52:17.920Z,2.40
2022-09-23T10:55:21.382Z,1.90
2022-09-23T10:58:32.165Z,2.10
2022-09-23T11:01:31.409Z,1.70
2022-09-23T11:04:23.665Z,1.70
2022-09-23T11:07:14.377Z,2.00
2022-09-23T11:10:23.180Z,2.20
2022-09-23T11:13:08.092Z,1.70
2022-09-23T11:15:51.675Z,2.30
2022-09-23T11:18:26.987Z,1.70
2022-09-23T11:21:29.991Z,1.80
2022-09-23T11:24:04.098Z,2.70
2022-09-23T11:26:59.917Z,2.30
2022-09-23T11:29:47.781Z,2.00
2022-09-23T11:32:33.614Z,2.10
2022-09-23T11:35:24.490Z,1.90
2022-09-23T11:38:11.237Z,1.80
2022-09-23T11:40:46.677Z,2.40
2022-09-23T11:43:24.233Z,1.70
2022-09-23T11:46:20.350Z,2.50
2022-09-23T11:48:57.312Z,2.50
2022-09-23T11:51:45.056Z,3.20
2022-09-23T11:54:26.429Z,1.90
2022-09-23T11:57:00.697Z,2.00
2022-09-23T11:59:54.265Z,2.10
2022-09-23T12:03:06.216Z,2.70
2022-09-23T12:05:43.617Z,2.10
2022-09-23T12:08:25.849Z,3.30
2022-09-23T12:11:00.198Z,1.90
2022-09-23T12:13:31.539Z,2.20
2022-09-23T12:16:28.790Z,2.20
2022-09-23T12:19:11.536Z,2.70
2022-09-23T12:24:32.251Z,3.00
2022-09-23T12:27:06.204Z,2.00
2022-09-23T12:29:37.108Z,2.20
2022-09-23T12:32:10.364Z,1.70
2022-09-23T12:34:48.283Z,1.90
2022-09-23T12:37:26.817Z,1.90
2022-09-23T12:40:01.959Z,1.80
2022-09-23T12:42:31.248Z,2.10
2022-09-23T12:45:35.120Z,2.60
2022-09-23T12:48:16.575Z,2.40
2022-09-23T12:50:55.999Z,2.30
2022-09-23T12:53:33.288Z,1.90
2022-09-23T12:56:14.874Z,1.90
2022-09-23T12:58:43.167Z,1.80
2022-09-23T13:01:14.364Z,1.60
2022-09-23T13:04:14.330Z,2.20
2022-09-23T13:07:04.643Z,2.00
2022-09-23T13:09:40.861Z,1.70
2022-09-23T13:12:25.372Z,2.00
2022-09-23T13:14:56.029Z,2.40
2022-09-23T13:17:38.691Z,2.20
2022-09-23T13:22:54.574Z,2.30
2022-09-23T13:25:26.725Z,3.30
2022-09-23T13:27:57.800Z,2.20
2022-09-23T13:30:27.007Z,2.10
2022-09-23T13:33:23.440Z,2.60
2022-09-23T13:35:56.169Z,1.90
2022-09-23T13:38:26.969Z,2.60
2022-09-23T13:40:58.970Z,1.90
2022-09-23T13:43:37.624Z,2.80
2022-09-23T13:46:16.538Z,3.10
2022-09-23T13:48:46.954Z,2.20
2022-09-23T13:51:35.114Z,2.40
2022-09-23T13:54:05.349Z,1.90
2022-09-23T13:56:35.433Z,2.00
2022-09-23T13:59:31.951Z,1.90
2022-09-23T14:02:28.642Z,1.70
2022-09-23T14:04:59.291Z,2.10
2022-09-23T14:07:36.396Z,1.80
2022-09-23T14:10:08.242Z,1.90
2022-09-23T14:12:40.051Z,1.60
2022-09-23T14:15:22.838Z,1.50
2022-09-23T14:20:30.958Z,1.80
2022-09-23T14:23:25.748Z,2.10
2022-09-23T14:25:58.952Z,2.00
2022-09-23T14:28:28.526Z,2.20
2022-09-23T14:30:58.566Z,1.50
2022-09-23T14:33:41.406Z,1.70
2022-09-23T14:36:36.639Z,1.90
2022-09-23T14:39:06.689Z,1.80
2022-09-23T14:41:44.126Z,1.80
2022-09-23T14:44:22.874Z,1.60
2022-09-23T14:46:58.371Z,1.50
2022-09-23T14:49:27.659Z,1.90
2022-09-23T14:52:00.916Z,1.80
2022-09-23T14:54:40.490Z,1.80
2022-09-23T14:57:26.208Z,2.10
2022-09-23T15:00:09.214Z,2.00
2022-09-23T15:02:44.341Z,1.90
2022-09-23T15:05:19.352Z,2.00
2022-09-23T15:07:50.786Z,2.70
2022-09-23T15:10:23.889Z,2.40
2022-09-23T15:12:54.208Z,1.60
2022-09-23T15:15:30.404Z,2.20
2022-09-23T15:18:19.677Z,2.30
2022-09-23T15:20:59.240Z,2.60
2022-09-23T15:23:47.836Z,2.50
2022-09-23T15:26:39.033Z,2.30
2022-09-23T15:29:09.972Z,2.20
2022-09-23T15:31:38.111Z,2.40
2022-09-23T15:34:06.247Z,2.30
2022-09-23T15:36:35.128Z,2.20
2022-09-23T15:39:06.359Z,2.70
2022-09-23T15:41:34.960Z,2.50
2022-09-23T15:44:14.173Z,2.30
2022-09-23T15:46:48.395Z,2.10
2022-09-23T15:49:46.718Z,2.00
2022-09-23T15:52:15.992Z,1.60
2022-09-23T15:54:53.636Z,2.70
2022-09-23T15:57:22.256Z,2.80
2022-09-23T15:59:50.347Z,2.30
2022-09-23T16:02:23.840Z,2.10
2022-09-23T16:04:52.902Z,2.60
2022-09-23T16:07:22.021Z,2.00
2022-09-23T16:09:50.121Z,2.00
2022-09-23T16:12:18.201Z,1.80
2022-09-23T16:14:46.501Z,1.80
2022-09-23T16:17:14.767Z,1.80
2022-09-23T16:19:44.142Z,1.80
2022-09-23T16:22:21.836Z,2.30
2022-09-23T16:24:50.138Z,2.10
2022-09-23T16:27:19.373Z,2.40
2022-09-23T16:29:47.508Z,11.20
2022-09-23T16:32:21.448Z,9.60
2022-09-23T16:37:49.152Z,3.60
2022-09-23T16:40:21.016Z,4.40
2022-09-23T16:42:52.253Z,2.60
2022-09-23T16:45:23.266Z,2.40
2022-09-23T16:47:52.698Z,1.70
2022-09-23T16:50:32.516Z,2.40
2022-09-23T16:53:00.506Z,34.10
2022-09-23T16:55:28.757Z,11.70
2022-09-23T16:57:56.784Z,4.00
2022-09-23T17:00:43.527Z,4.40
2022-09-23T17:03:31.503Z,5.10
2022-09-23T17:06:01.551Z,3.40
2022-09-23T17:08:32.670Z,4.30
2022-09-23T17:11:01.295Z,3.70
2022-09-23T17:13:30.873Z,5.00
2022-09-23T17:15:59.231Z,19.60
2022-09-23T17:18:27.794Z,6.10
2022-09-23T17:21:03.257Z,4.50
2022-09-23T17:23:32.558Z,4.30
2022-09-23T17:26:01.997Z,3.90
2022-09-23T17:28:30.050Z,4.00
2022-09-23T17:31:00.323Z,3.80
2022-09-23T17:33:30.999Z,3.30
2022-09-23T17:36:02.301Z,2.80
2022-09-23T17:38:30.894Z,3.30
2022-09-23T17:41:02.239Z,3.30
2022-09-23T17:43:31.771Z,1.70
2022-09-23T17:46:12.984Z,3.50
2022-09-23T17:48:42.022Z,3.30
2022-09-23T17:51:11.801Z,2.40
2022-09-23T17:53:41.440Z,2.60
2022-09-23T17:56:22.920Z,2.80
2022-09-23T17:58:52.188Z,2.50
2022-09-23T18:01:22.935Z,1.90
2022-09-23T18:03:56.102Z,2.50
2022-09-23T18:06:26.676Z,2.70
2022-09-23T18:08:57.253Z,2.90
2022-09-23T18:11:28.483Z,4.30
2022-09-23T18:14:12.589Z,4.50
2022-09-23T18:16:42.949Z,4.40
2022-09-23T18:19:14.129Z,2.60
2022-09-23T18:21:45.472Z,4.20
2022-09-23T18:27:04.008Z,3.80
2022-09-23T18:29:34.072Z,4.70
2022-09-23T18:32:02.922Z,2.80
2022-09-23T18:34:31.583Z,4.50
2022-09-23T18:36:59.823Z,4.50
2022-09-23T18:39:28.742Z,4.60
2022-09-23T18:41:56.824Z,4.70
2022-09-23T18:44:25.003Z,3.00
2022-09-23T18:46:53.145Z,3.70
2022-09-23T18:49:39.944Z,2.80
2022-09-23T18:52:08.050Z,14.40
2022-09-23T18:54:36.710Z,15.90
2022-09-23T18:57:05.373Z,12.80
2022-09-23T18:59:33.634Z,10.50
2022-09-23T19:02:02.075Z,23.80
2022-09-23T19:04:30.328Z,8.70
2022-09-23T19:06:59.043Z,9.30
2022-09-23T19:09:27.833Z,9.90
2022-09-23T19:11:56.598Z,5.30
2022-09-23T19:14:24.669Z,7.80
2022-09-23T19:16:52.811Z,6.40
2022-09-23T19:19:20.862Z,6.60
2022-09-23T19:21:48.923Z,6.20
2022-09-23T19:24:20.689Z,4.50
2022-09-23T19:26:48.857Z,6.40
2022-09-23T19:29:22.099Z,6.10
2022-09-23T19:31:51.240Z,5.80
2022-09-23T19:34:29.277Z,6.20
2022-09-23T19:36:58.930Z,6.00
2022-09-23T19:39:31.234Z,4.30
2022-09-23T19:41:59.475Z,5.00
2022-09-23T19:44:28.763Z,4.30
2022-09-23T19:46:57.506Z,3.80
2022-09-23T19:49:26.386Z,4.50
2022-09-23T19:51:56.156Z,4.10
2022-09-23T19:54:27.693Z,4.10
2022-09-23T19:56:56.113Z,6.00
2022-09-23T19:59:26.485Z,4.40
2022-09-23T20:01:55.195Z,6.00
2022-09-23T20:04:23.378Z,5.70
2022-09-23T20:06:51.324Z,5.40
2022-09-23T20:09:19.468Z,4.60
2022-09-23T20:11:47.424Z,5.70
2022-09-23T20:14:15.418Z,5.50
2022-09-23T20:16:43.563Z,4.70
2022-09-23T20:19:11.826Z,6.80
2022-09-23T20:21:39.974Z,5.80
2022-09-23T20:24:09.742Z,5.30
2022-09-23T20:26:56.733Z,4.60
2022-09-23T20:29:24.663Z,4.70
2022-09-23T20:31:52.938Z,7.90
2022-09-23T20:34:21.647Z,8.00
2022-09-23T20:36:50.025Z,5.90
2022-09-23T20:39:17.987Z,4.60
2022-09-23T20:41:46.140Z,4.40
2022-09-23T20:44:14.408Z,7.10
2022-09-23T20:46:48.640Z,6.70
2022-09-23T20:49:18.142Z,4.50
2022-09-23T20:51:50.306Z,6.60
2022-09-23T20:54:19.440Z,5.90
2022-09-23T20:56:47.948Z,4.80
2022-09-23T20:59:18.226Z,4.30
2022-09-23T21:01:47.815Z,3.90
2022-09-23T21:04:16.308Z,5.00
2022-09-23T21:06:44.455Z,7.30
2022-09-23T21:09:12.502Z,5.80
2022-09-23T21:11:40.857Z,4.10
2022-09-23T21:14:09.268Z,3.90
2022-09-23T21:16:37.337Z,6.40
2022-09-23T21:19:08.115Z,5.10
2022-09-23T21:21:36.371Z,6.20
2022-09-23T21:24:31.285Z,5.90
2022-09-23T21:26:52.429Z,6.20
2022-09-23T21:29:20.449Z,5.80
2022-09-23T21:31:49.675Z,8.90
2022-09-23T21:34:19.513Z,5.90
2022-09-23T21:36:48.447Z,6.00
2022-09-23T21:39:16.901Z,4.80
2022-09-23T21:41:45.318Z,6.90
2022-09-23T21:44:13.501Z,4.00
2022-09-23T21:46:41.866Z,7.30
2022-09-23T21:49:09.819Z,6.80
2022-09-23T21:51:42.880Z,5.00
2022-09-23T21:54:17.044Z,5.00
2022-09-23T21:56:45.225Z,6.80
2022-09-23T21:59:13.307Z,7.30
2022-09-23T22:01:44.923Z,8.10
2022-09-23T22:04:17.432Z,7.60
2022-09-23T22:06:49.267Z,5.80
2022-09-23T22:09:20.542Z,7.60
2022-09-23T22:12:07.282Z,10.50
2022-09-23T22:14:35.986Z,9.50
2022-09-23T22:17:06.394Z,10.30
2022-09-23T22:19:40.322Z,8.20
2022-09-23T22:22:13.513Z,6.60
2022-09-23T22:24:46.679Z,7.00
2022-09-23T22:27:17.590Z,10.00
2022-09-23T22:30:04.110Z,9.80
2022-09-23T22:32:35.035Z,7.90
2022-09-23T22:35:03.747Z,5.70
2022-09-23T22:37:34.738Z,8.40
2022-09-23T22:40:05.796Z,9.60
2022-09-23T22:42:34.117Z,9.10
2022-09-23T22:45:05.823Z,11.10
2022-09-23T22:47:37.248Z,9.60
2022-09-23T22:50:07.272Z,8.10
2022-09-23T22:52:35.974Z,6.50
2022-09-23T22:55:04.968Z,10.90
2022-09-23T22:57:32.850Z,10.50
2022-09-23T23:00:00.929Z,7.50
2022-09-23T23:02:28.987Z,7.00
2022-09-23T23:04:58.660Z,10.30
2022-09-23T23:07:26.701Z,6.90
2022-09-23T23:09:54.759Z,6.20
2022-09-23T23:12:22.614Z,5.90
2022-09-23T23:14:50.507Z,5.00
2022-09-23T23:17:18.937Z,5.70
2022-09-23T23:19:47.605Z,9.10
2022-09-23T23:22:15.492Z,9.10
2022-09-23T23:24:43.561Z,5.70
2022-09-23T23:27:11.518Z,6.90
2022-09-23T23:29:39.535Z,5.30
2022-09-23T23:32:07.805Z,5.10
2022-09-23T23:34:35.912Z,8.90
2022-09-23T23:37:03.911Z,8.80
2022-09-23T23:39:31.899Z,9.10
2022-09-23T23:42:00.665Z,9.70
2022-09-23T23:44:30.633Z,7.80
2022-09-23T23:46:58.614Z,6.10
2022-09-23T23:49:26.483Z,5.80
2022-09-23T23:51:54.402Z,9.00
2022-09-23T23:54:22.373Z,6.60
2022-09-23T23:56:50.600Z,8.00
2022-09-23T23:59:20.157Z,7.30
